Lowry, Minnesota
Current Conditions -  °F | °C
As of 4:33 PM on Friday 28 Nov 2014 (Local Time) from KGHW Reporting Station
Scattered Clouds Scattered Clouds  
Wind Chill:   Ceiling: Unl
Heat Index: 18°   Visibility: 10mi
Dew Point: 12°   Wind: 12mph
Humidity: 79%   Direction: 90°E
Pressure: 29.77"   Gusts: NA
Location:  45.7°N, 95.52°W
Report Text: KGHW 282233Z AUTO 09010KT 10SM SCT110 M08/M11 A2977 RMK AO2
Loading
Personal Weather Stations






























Interactive Weather Map New forecast layout! Learn more

10-Day Weather Forecast

Advertisements
Track Severe Weather on mobile